Time;durP1;ratioP1;P1;durP2;ratioP2;P2;SDS_P1;SDS_P2;PMS_P1;PMS_P2;Temp;Humidity;BMP_temperature;BMP_pressure;BME280_temperature;BME280_humidity;BME280_pressure;Samples;Min_cycle;Max_cycle;Signal;HPM_P1;HPM_P2
2022/03/21 00:01:42;;;;;;;0.80;0.80;;;0.70;99.90;;;;;;5191129;28;20051;-74
2022/03/21 00:04:13;;;;;;;2.60;2.15;;;0.70;99.90;;;;;;5193216;28;20044;-74
2022/03/21 00:06:45;;;;;;;0.55;0.55;;;0.70;99.90;;;;;;5184172;28;20041;-74
2022/03/21 00:09:21;;;;;;;0.55;0.55;;;0.60;99.90;;;;;;5208784;28;20129;-74
2022/03/21 00:11:59;;;;;;;0.60;0.60;;;0.60;99.90;;;;;;5202141;28;20041;-76
2022/03/21 00:14:32;;;;;;;0.50;0.50;;;0.50;99.90;;;;;;5185690;28;20037;-74
2022/03/21 00:17:04;;;;;;;0.90;0.90;;;0.50;99.90;;;;;;5168770;28;20334;-75
2022/03/21 00:19:41;;;;;;;0.50;0.50;;;0.50;99.90;;;;;;5168804;28;20038;-74
2022/03/21 00:22:14;;;;;;;0.63;0.63;;;0.50;99.90;;;;;;5177956;28;20025;-75
2022/03/21 00:24:51;;;;;;;0.45;0.45;;;0.50;99.90;;;;;;5199093;28;21224;-76
2022/03/21 00:27:25;;;;;;;0.70;0.70;;;0.60;99.90;;;;;;5186944;28;20560;-74
2022/03/21 00:29:59;;;;;;;0.50;0.50;;;0.70;99.90;;;;;;5216116;28;20033;-75
2022/03/21 00:32:39;;;;;;;0.82;0.82;;;0.70;99.90;;;;;;5209891;28;20026;-77
2022/03/21 00:35:16;;;;;;;1.05;1.05;;;0.70;99.90;;;;;;5204304;28;20025;-74
2022/03/21 00:37:47;;;;;;;0.68;0.68;;;0.80;99.90;;;;;;5173865;28;20465;-74
2022/03/21 00:40:19;;;;;;;1.05;1.05;;;0.90;99.90;;;;;;5204086;28;20589;-74
2022/03/21 00:42:52;;;;;;;1.90;1.65;;;1.00;99.90;;;;;;5172689;28;20052;-74
2022/03/21 00:45:29;;;;;;;1.13;1.13;;;1.10;99.90;;;;;;5204499;28;20491;-75
2022/03/21 00:48:01;;;;;;;0.80;0.80;;;1.10;99.90;;;;;;5200465;28;20035;-75
2022/03/21 00:50:32;;;;;;;0.45;0.45;;;1.00;99.90;;;;;;5203255;28;20025;-75
2022/03/21 00:53:09;;;;;;;1.02;1.02;;;0.90;99.90;;;;;;5217926;28;20058;-75
2022/03/21 00:55:43;;;;;;;0.60;0.60;;;0.80;99.90;;;;;;5194608;28;20022;-74
2022/03/21 00:58:17;;;;;;;1.83;1.73;;;0.60;99.90;;;;;;5200503;28;20033;-76
2022/03/21 01:00:53;;;;;;;0.95;0.95;;;0.50;99.90;;;;;;5182487;28;20041;-74
2022/03/21 01:03:27;;;;;;;0.60;0.60;;;0.50;99.90;;;;;;5173616;28;20033;-74
2022/03/21 01:05:59;;;;;;;;;;;0.60;99.90;;;;;;5193864;28;20056;-74
2022/03/21 01:08:34;;;;;;;0.80;0.80;;;0.60;99.90;;;;;;5203817;28;19922;-74
2022/03/21 01:11:05;;;;;;;0.80;0.80;;;0.50;99.90;;;;;;5183326;28;20031;-73
2022/03/21 01:13:41;;;;;;;1.15;1.15;;;0.50;99.90;;;;;;5183387;28;20028;-75
2022/03/21 01:16:15;;;;;;;0.80;0.80;;;0.50;99.90;;;;;;5218836;28;20028;-73
2022/03/21 01:18:47;;;;;;;1.10;1.10;;;0.50;99.90;;;;;;5217489;28;20066;-75
2022/03/21 01:21:20;;;;;;;0.75;0.75;;;0.60;99.90;;;;;;5198067;28;20371;-74
2022/03/21 01:24:02;;;;;;;1.15;1.15;;;0.60;99.90;;;;;;5187002;28;20051;-76
2022/03/21 01:26:36;;;;;;;0.75;0.75;;;0.60;99.90;;;;;;5214143;28;20414;-74
2022/03/21 01:29:16;;;;;;;0.75;0.75;;;0.60;99.90;;;;;;5158058;28;20037;-75
2022/03/21 01:31:52;;;;;;;0.60;0.60;;;0.70;99.90;;;;;;5181793;28;20044;-74
2022/03/21 01:34:26;;;;;;;0.45;0.45;;;0.70;99.90;;;;;;5184233;28;20415;-75
2022/03/21 01:36:57;;;;;;;2.53;1.65;;;0.70;99.90;;;;;;5171977;28;20398;-74
2022/03/21 01:39:29;;;;;;;1.33;1.30;;;0.70;99.90;;;;;;5208331;28;20503;-74
2022/03/21 01:42:01;;;;;;;0.45;0.45;;;0.70;99.90;;;;;;5199246;28;20055;-75
2022/03/21 01:44:35;;;;;;;0.50;0.50;;;0.70;99.90;;;;;;5196435;28;20696;-75
2022/03/21 01:47:07;;;;;;;1.02;1.02;;;0.60;99.90;;;;;;5195792;28;20020;-75
2022/03/21 01:49:40;;;;;;;0.30;0.30;;;0.60;99.90;;;;;;5219119;28;20110;-76
2022/03/21 01:52:14;;;;;;;1.10;1.10;;;0.50;99.90;;;;;;5197869;28;20041;-73
2022/03/21 01:57:39;;;;;;;0.70;0.70;;;0.60;99.90;;;;;;5219525;28;20032;-74
2022/03/21 02:00:11;;;;;;;1.00;1.00;;;0.50;99.90;;;;;;5164322;28;20621;-74
2022/03/21 02:02:44;;;;;;;1.15;1.15;;;0.60;99.90;;;;;;5188873;28;20042;-76
2022/03/21 02:05:16;;;;;;;0.55;0.55;;;0.70;99.90;;;;;;5215865;28;20569;-73
2022/03/21 02:07:48;;;;;;;0.50;0.50;;;0.60;99.90;;;;;;5215834;28;20046;-73
2022/03/21 02:10:21;;;;;;;1.08;1.08;;;0.70;99.90;;;;;;5183140;28;20042;-75
2022/03/21 02:12:59;;;;;;;1.75;1.67;;;0.60;99.90;;;;;;5207036;28;20033;-74
2022/03/21 02:15:32;;;;;;;1.25;1.15;;;0.60;99.90;;;;;;5201535;28;20037;-74
2022/03/21 02:18:04;;;;;;;0.80;0.80;;;0.50;99.90;;;;;;5175850;28;20041;-76
2022/03/21 02:20:41;;;;;;;0.85;0.85;;;0.50;99.90;;;;;;5198781;28;20035;-74
2022/03/21 02:23:36;;;;;;;0.63;0.63;;;0.50;99.90;;;;;;5185883;28;20026;-73
2022/03/21 02:26:13;;;;;;;0.40;0.40;;;0.50;99.90;;;;;;5209623;28;20026;-74
2022/03/21 02:28:48;;;;;;;0.65;0.65;;;0.60;99.90;;;;;;5210494;28;20005;-74
2022/03/21 02:31:24;;;;;;;2.15;1.55;;;0.60;99.90;;;;;;5187823;28;20021;-73
2022/03/21 02:33:58;;;;;;;2.35;2.25;;;0.60;99.90;;;;;;5175523;28;20063;-74
2022/03/21 02:36:32;;;;;;;0.70;0.70;;;0.70;99.90;;;;;;5185564;28;20112;-74
2022/03/21 02:39:04;;;;;;;0.82;0.82;;;0.60;99.90;;;;;;5207210;28;20044;-76
2022/03/21 02:41:38;;;;;;;0.60;0.60;;;0.60;99.90;;;;;;5215890;28;20025;-75
2022/03/21 02:44:12;;;;;;;0.80;0.80;;;0.40;99.90;;;;;;5187326;28;20022;-75
2022/03/21 02:46:46;;;;;;;1.35;1.35;;;0.20;99.90;;;;;;5212597;28;20314;-74
2022/03/21 02:49:17;;;;;;;0.85;0.85;;;0.00;99.90;;;;;;5212144;28;20330;-74
2022/03/21 02:51:52;;;;;;;0.57;0.57;;;-0.20;99.90;;;;;;5197187;28;20036;-75
2022/03/21 02:54:27;;;;;;;0.50;0.50;;;-0.30;99.90;;;;;;5183210;28;20482;-76
2022/03/21 02:57:00;;;;;;;0.90;0.90;;;-0.40;99.90;;;;;;5190846;28;20031;-76
2022/03/21 02:59:34;;;;;;;0.90;0.90;;;-0.50;99.90;;;;;;5213143;28;20017;-74
2022/03/21 03:02:13;;;;;;;0.47;0.47;;;-0.60;99.90;;;;;;5202103;28;20062;-75
2022/03/21 03:04:48;;;;;;;0.50;0.50;;;-0.80;99.90;;;;;;5191955;28;20403;-74
2022/03/21 03:07:25;;;;;;;0.50;0.50;;;-0.80;99.90;;;;;;5185372;28;20031;-74
2022/03/21 03:09:59;;;;;;;0.75;0.75;;;-0.90;99.90;;;;;;5189257;28;20039;-75
2022/03/21 03:12:32;;;;;;;0.40;0.40;;;-0.90;99.90;;;;;;5212938;28;20024;-74
2022/03/21 03:15:14;;;;;;;0.43;0.43;;;-0.90;99.90;;;;;;5197689;28;20043;-75
2022/03/21 03:17:47;;;;;;;0.47;0.47;;;-0.90;99.90;;;;;;5188965;28;20032;-74
2022/03/21 03:20:23;;;;;;;0.70;0.70;;;-0.90;99.90;;;;;;5199700;28;20052;-76
2022/03/21 03:23:03;;;;;;;0.63;0.63;;;-0.90;99.90;;;;;;5199534;28;20048;-74
2022/03/21 03:25:36;;;;;;;0.40;0.40;;;-1.00;99.90;;;;;;5199010;28;20021;-73
2022/03/21 03:28:15;;;;;;;0.65;0.65;;;-1.10;99.90;;;;;;5181483;28;20400;-75
2022/03/21 03:30:46;;;;;;;0.73;0.73;;;-1.10;99.90;;;;;;5197502;28;20554;-75
2022/03/21 03:33:24;;;;;;;0.50;0.50;;;-1.10;99.90;;;;;;5213165;28;20391;-74
2022/03/21 03:35:58;;;;;;;0.50;0.50;;;-1.20;99.90;;;;;;5198693;28;20044;-75
2022/03/21 03:38:29;;;;;;;0.55;0.55;;;-1.10;99.90;;;;;;5204891;28;20048;-76
2022/03/21 03:41:02;;;;;;;0.40;0.40;;;-1.20;99.90;;;;;;5208074;28;20036;-74
2022/03/21 03:43:36;;;;;;;0.77;0.77;;;-1.20;99.90;;;;;;5220472;28;20017;-74
2022/03/21 03:46:09;;;;;;;0.80;0.80;;;-1.20;99.90;;;;;;5196092;28;20032;-75
2022/03/21 03:48:41;;;;;;;0.40;0.40;;;-1.20;99.90;;;;;;5191174;28;20035;-74
2022/03/21 03:51:19;;;;;;;0.60;0.60;;;-1.10;99.90;;;;;;5196237;28;20514;-75
2022/03/21 03:53:50;;;;;;;0.60;0.60;;;-1.00;99.90;;;;;;5215544;28;20025;-74
2022/03/21 03:56:28;;;;;;;0.60;0.60;;;-1.00;99.90;;;;;;5208194;28;20035;-75
2022/03/21 03:59:05;;;;;;;1.23;1.23;;;-0.90;99.90;;;;;;5214126;28;20028;-73
2022/03/21 04:01:41;;;;;;;0.70;0.70;;;-0.90;99.90;;;;;;5171272;28;20037;-74
2022/03/21 04:04:16;;;;;;;0.50;0.50;;;-1.00;99.90;;;;;;5177627;28;20033;-74
2022/03/21 04:06:50;;;;;;;0.40;0.40;;;-1.00;99.90;;;;;;5180467;28;20032;-73
2022/03/21 04:09:26;;;;;;;0.60;0.60;;;-1.10;99.90;;;;;;5200191;28;20342;-73
2022/03/21 04:12:02;;;;;;;0.90;0.90;;;-1.20;99.90;;;;;;5202580;28;20028;-73
2022/03/21 04:14:34;;;;;;;0.70;0.70;;;-1.20;99.90;;;;;;5214377;28;20041;-74
2022/03/21 04:17:11;;;;;;;0.77;0.77;;;-1.30;99.90;;;;;;5200045;28;20037;-75
2022/03/21 04:19:45;;;;;;;0.70;0.70;;;-1.30;99.90;;;;;;5202735;28;20029;-74
2022/03/21 04:22:19;;;;;;;;;;;-1.30;99.90;;;;;;5195247;28;20053;-75
2022/03/21 04:24:54;;;;;;;0.70;0.70;;;-1.40;99.90;;;;;;5215842;28;19988;-75
2022/03/21 04:27:26;;;;;;;0.50;0.50;;;-1.50;99.90;;;;;;5188653;28;20047;-74
2022/03/21 04:30:00;;;;;;;0.40;0.40;;;-1.50;99.90;;;;;;5189928;28;20035;-73
2022/03/21 04:32:38;;;;;;;1.20;1.20;;;-1.60;99.90;;;;;;5209513;28;20037;-74
2022/03/21 04:35:11;;;;;;;0.40;0.40;;;-1.60;99.90;;;;;;5192363;28;20037;-73
2022/03/21 04:37:46;;;;;;;0.52;0.52;;;-1.60;99.90;;;;;;5196781;28;20041;-76
2022/03/21 04:40:25;;;;;;;0.45;0.45;;;-1.50;99.90;;;;;;5204297;28;20392;-74
2022/03/21 04:42:59;;;;;;;0.90;0.90;;;-1.40;99.90;;;;;;5192248;28;20033;-72
2022/03/21 04:45:33;;;;;;;0.68;0.68;;;-1.20;99.90;;;;;;5212004;28;20228;-74
2022/03/21 04:48:05;;;;;;;0.83;0.83;;;-1.10;99.90;;;;;;5221982;28;20043;-74
2022/03/21 04:50:37;;;;;;;0.70;0.70;;;-1.10;99.90;;;;;;5187357;28;20036;-74
2022/03/21 04:53:10;;;;;;;0.90;0.90;;;-1.10;99.90;;;;;;5203912;28;20027;-73
2022/03/21 04:55:43;;;;;;;0.50;0.50;;;-1.10;99.90;;;;;;5210029;28;20030;-73
2022/03/21 04:58:19;;;;;;;1.05;1.05;;;-1.10;99.90;;;;;;5216799;28;20029;-73
2022/03/21 05:00:53;;;;;;;0.63;0.63;;;-1.20;99.90;;;;;;5207615;28;20029;-73
2022/03/21 05:03:32;;;;;;;0.50;0.50;;;-1.10;99.90;;;;;;5193614;28;20052;-74
2022/03/21 05:06:06;;;;;;;0.40;0.40;;;-1.20;99.90;;;;;;5180585;28;20679;-73
2022/03/21 05:08:38;;;;;;;0.80;0.80;;;-1.20;99.90;;;;;;5175870;28;20025;-73
2022/03/21 05:11:13;;;;;;;0.80;0.80;;;-1.10;99.90;;;;;;5191704;28;20060;-73
2022/03/21 05:13:44;;;;;;;0.50;0.50;;;-1.10;99.90;;;;;;5193361;28;20388;-74
2022/03/21 05:16:16;;;;;;;0.50;0.50;;;-1.00;99.90;;;;;;5183636;28;20045;-75
2022/03/21 05:18:52;;;;;;;0.70;0.70;;;-0.80;99.90;;;;;;5199324;28;20032;-72
2022/03/21 05:21:24;;;;;;;0.68;0.68;;;-0.80;99.90;;;;;;5201239;28;20368;-72
2022/03/21 05:32:34;;;;;;;1.00;1.00;;;-0.10;99.90;;;;;;5200794;28;20477;-72
2022/03/21 05:37:57;;;;;;;0.60;0.60;;;0.10;99.90;;;;;;5200139;28;20056;-73
2022/03/21 05:40:31;;;;;;;0.73;0.73;;;0.30;99.90;;;;;;5204579;28;20029;-74
2022/03/21 05:43:06;;;;;;;0.80;0.80;;;0.40;99.90;;;;;;5193132;28;20021;-74
2022/03/21 05:45:41;;;;;;;0.70;0.70;;;0.50;99.90;;;;;;5207998;28;20064;-74
2022/03/21 05:51:13;;;;;;;1.30;1.20;;;0.80;99.90;;;;;;5192584;28;20029;-75
2022/03/21 05:53:49;;;;;;;0.77;0.77;;;0.80;99.90;;;;;;5194769;28;20028;-75
2022/03/21 05:56:25;;;;;;;0.75;0.75;;;0.90;99.90;;;;;;5192210;28;20044;-75
2022/03/21 06:00:20;;;;;;;0.70;0.70;;;1.00;99.90;;;;;;5191159;28;20045;-74
2022/03/21 06:01:56;;;;;;;0.80;0.80;;;1.10;99.90;;;;;;5203823;28;20025;-77
2022/03/21 06:04:29;;;;;;;1.20;1.10;;;1.30;99.90;;;;;;5199805;28;20204;-74
2022/03/21 06:07:00;;;;;;;1.23;1.23;;;1.30;99.90;;;;;;5173065;28;20028;-75
2022/03/21 06:09:32;;;;;;;1.08;1.08;;;1.50;99.90;;;;;;5181483;28;20020;-75
2022/03/21 06:12:07;;;;;;;0.73;0.73;;;1.70;99.90;;;;;;5221460;28;20033;-75
2022/03/21 06:14:38;;;;;;;1.02;1.02;;;1.90;99.90;;;;;;5209164;28;20025;-75
2022/03/21 06:17:11;;;;;;;0.80;0.80;;;2.00;99.90;;;;;;5207211;28;20046;-75
2022/03/21 06:19:43;;;;;;;1.08;1.08;;;1.90;99.90;;;;;;5196989;28;20044;-75
2022/03/21 06:22:14;;;;;;;0.95;0.95;;;2.10;99.90;;;;;;5189435;28;20060;-77
2022/03/21 06:24:48;;;;;;;1.13;1.13;;;2.20;99.90;;;;;;5191869;28;20036;-76
2022/03/21 06:27:19;;;;;;;0.40;0.40;;;2.20;99.90;;;;;;5218589;28;20039;-76
2022/03/21 06:29:57;;;;;;;1.52;1.52;;;2.30;99.90;;;;;;5201576;28;20048;-74
2022/03/21 06:32:28;;;;;;;1.23;1.23;;;2.60;99.90;;;;;;5197778;28;20041;-75
2022/03/21 06:35:03;;;;;;;1.92;1.83;;;2.90;99.90;;;;;;5201046;28;20045;-76
2022/03/21 06:37:41;;;;;;;0.80;0.80;;;3.10;99.90;;;;;;5213263;28;20052;-76
2022/03/21 06:40:15;;;;;;;1.17;1.17;;;3.30;99.90;;;;;;5191898;28;20029;-77
2022/03/21 06:42:46;;;;;;;0.90;0.90;;;3.60;99.90;;;;;;5211141;28;20072;-78
2022/03/21 06:45:18;;;;;;;1.17;1.17;;;3.60;99.90;;;;;;5212573;28;20037;-76
2022/03/21 06:47:52;;;;;;;0.63;0.63;;;3.70;99.90;;;;;;5210923;28;20033;-76
2022/03/21 06:50:26;;;;;;;1.13;1.13;;;3.80;99.90;;;;;;5207547;28;20037;-75
2022/03/21 06:52:59;;;;;;;0.98;0.98;;;4.00;99.90;;;;;;5190946;28;20039;-77
2022/03/21 06:55:30;;;;;;;0.80;0.80;;;4.10;99.90;;;;;;5179979;28;20039;-76
2022/03/21 06:58:03;;;;;;;0.70;0.70;;;4.30;99.90;;;;;;5201370;28;20055;-76
2022/03/21 07:00:35;;;;;;;1.38;1.27;;;4.40;99.90;;;;;;5193328;28;20041;-76
2022/03/21 07:03:14;;;;;;;1.73;1.65;;;4.80;99.90;;;;;;5197662;28;20033;-75
2022/03/21 07:05:47;;;;;;;0.80;0.80;;;5.00;99.90;;;;;;5163028;28;20061;-76
2022/03/21 07:08:18;;;;;;;1.73;1.63;;;5.40;99.90;;;;;;5191558;28;20503;-76
2022/03/21 07:10:54;;;;;;;1.02;1.02;;;5.50;99.90;;;;;;5220951;28;20032;-77
2022/03/21 07:13:29;;;;;;;0.90;0.90;;;5.60;99.90;;;;;;5239534;28;20048;-77
2022/03/21 07:16:06;;;;;;;1.52;1.42;;;5.90;99.90;;;;;;5203786;28;20045;-76
2022/03/21 07:18:37;;;;;;;1.30;1.30;;;5.80;99.90;;;;;;5200192;28;20037;-76
2022/03/21 07:21:16;;;;;;;0.75;0.75;;;5.90;99.90;;;;;;5199947;28;20135;-76
2022/03/21 07:23:48;;;;;;;1.60;1.42;;;6.20;99.90;;;;;;5199078;28;20045;-75
2022/03/21 07:26:19;;;;;;;0.93;0.93;;;6.40;99.90;;;;;;5174129;28;20354;-78
2022/03/21 07:28:54;;;;;;;1.77;1.67;;;6.60;99.90;;;;;;5199179;28;20029;-77
2022/03/21 07:31:26;;;;;;;1.20;1.20;;;6.80;99.90;;;;;;5165919;28;20329;-76
2022/03/21 07:34:03;;;;;;;1.60;1.60;;;6.90;99.90;;;;;;5165771;28;20029;-77
2022/03/21 07:36:39;;;;;;;1.25;1.25;;;7.30;99.90;;;;;;5186126;28;20032;-77
2022/03/21 07:39:13;;;;;;;3.05;2.75;;;7.20;99.90;;;;;;5203140;28;20551;-77
2022/03/21 07:41:47;;;;;;;1.05;1.05;;;7.30;99.90;;;;;;5221190;28;20509;-77
2022/03/21 07:47:23;;;;;;;1.15;1.15;;;7.90;99.90;;;;;;5221496;28;20856;-76
2022/03/21 07:49:56;;;;;;;1.40;1.40;;;8.00;99.90;;;;;;5187274;28;20452;-77
2022/03/21 07:52:28;;;;;;;0.90;0.90;;;8.10;99.90;;;;;;5220720;28;20043;-78
2022/03/21 07:55:03;;;;;;;0.82;0.82;;;8.40;99.90;;;;;;5187126;28;20047;-78
2022/03/21 07:57:37;;;;;;;0.80;0.80;;;8.30;99.90;;;;;;5193446;28;20326;-77
2022/03/21 08:00:13;;;;;;;1.35;1.35;;;8.30;99.90;;;;;;5199356;28;20218;-78
2022/03/21 08:02:45;;;;;;;1.48;1.48;;;8.60;99.90;;;;;;5216695;28;20040;-78
2022/03/21 08:05:17;;;;;;;0.80;0.80;;;8.60;99.90;;;;;;5197868;28;20053;-77
2022/03/21 08:07:52;;;;;;;1.30;1.30;;;8.40;99.90;;;;;;5188716;28;20025;-77
2022/03/21 08:10:29;;;;;;;1.33;1.33;;;8.60;99.90;;;;;;5204102;28;20047;-77
2022/03/21 08:13:03;;;;;;;1.17;1.17;;;9.00;99.90;;;;;;5200200;28;20033;-78
2022/03/21 08:15:38;;;;;;;1.10;1.10;;;9.00;99.90;;;;;;5177855;28;20036;-79
2022/03/21 08:18:15;;;;;;;0.98;0.98;;;9.00;99.90;;;;;;5221747;28;20021;-78
2022/03/21 08:20:48;;;;;;;2.13;2.03;;;8.80;99.90;;;;;;5198738;28;20444;-77
2022/03/21 08:23:19;;;;;;;0.80;0.80;;;8.60;99.90;;;;;;5236388;28;20021;-79
2022/03/21 08:25:52;;;;;;;2.72;2.45;;;8.90;99.90;;;;;;5203876;28;20040;-76
2022/03/21 08:28:23;;;;;;;0.90;0.90;;;9.20;99.90;;;;;;5205761;28;20025;-78
2022/03/21 08:31:00;;;;;;;1.35;1.30;;;9.50;99.90;;;;;;5204693;28;20374;-78
2022/03/21 08:33:36;;;;;;;1.13;1.13;;;9.80;99.90;;;;;;5210872;28;20019;-78
2022/03/21 08:36:09;;;;;;;1.95;1.85;;;9.40;99.90;;;;;;5224146;28;20031;-79
2022/03/21 08:38:43;;;;;;;1.48;1.48;;;9.90;99.90;;;;;;5203048;28;20037;-77
2022/03/21 08:41:16;;;;;;;1.30;1.30;;;9.90;99.90;;;;;;5222675;28;20043;-78
2022/03/21 08:43:48;;;;;;;1.33;1.33;;;9.80;99.90;;;;;;5222848;28;20025;-78
2022/03/21 08:46:24;;;;;;;1.58;1.58;;;10.10;99.90;;;;;;5224593;28;20498;-79
2022/03/21 08:51:50;;;;;;;0.80;0.80;;;10.30;99.90;;;;;;5208811;28;20025;-76
2022/03/21 08:54:25;;;;;;;0.70;0.70;;;10.60;99.90;;;;;;5223120;28;20016;-77
2022/03/21 08:56:59;;;;;;;1.00;1.00;;;10.40;99.90;;;;;;5233625;28;20040;-77
2022/03/21 08:59:33;;;;;;;0.80;0.80;;;10.50;99.90;;;;;;5214324;28;20017;-78
2022/03/21 09:02:05;;;;;;;;;;;9.80;99.90;;;;;;5196234;28;20027;-78
2022/03/21 09:04:39;;;;;;;1.02;1.02;;;9.60;99.90;;;;;;5178184;28;19921;-77
2022/03/21 09:07:16;;;;;;;1.00;1.00;;;10.10;99.90;;;;;;5205355;28;20024;-78
2022/03/21 09:09:47;;;;;;;1.83;1.73;;;9.80;99.90;;;;;;5217193;28;20051;-77
2022/03/21 09:12:19;;;;;;;1.35;1.35;;;10.20;99.80;;;;;;5188116;28;20032;-78
2022/03/21 09:14:50;;;;;;;2.25;2.05;;;10.40;99.90;;;;;;5204912;28;20033;-80
2022/03/21 09:17:22;;;;;;;0.88;0.88;;;10.10;99.50;;;;;;5170412;28;20037;-77
2022/03/21 09:19:53;;;;;;;1.33;1.23;;;10.50;99.10;;;;;;5205234;28;20017;-78
2022/03/21 09:22:25;;;;;;;2.30;1.17;;;9.90;98.80;;;;;;5208419;28;20225;-78
2022/03/21 09:24:56;;;;;;;1.30;1.30;;;10.20;98.60;;;;;;5225801;28;20025;-78
2022/03/21 09:27:31;;;;;;;1.27;1.27;;;10.50;98.30;;;;;;5207900;28;20017;-78
2022/03/21 09:30:06;;;;;;;0.82;0.82;;;10.80;98.10;;;;;;5202142;28;20027;-78
2022/03/21 09:32:40;;;;;;;1.52;1.52;;;11.20;97.90;;;;;;5206411;28;20265;-79
2022/03/21 09:35:16;;;;;;;1.02;1.02;;;11.20;97.90;;;;;;5206909;28;20039;-78
2022/03/21 09:37:50;;;;;;;1.05;1.05;;;11.30;97.70;;;;;;5214562;28;20425;-79
2022/03/21 09:40:24;;;;;;;1.00;1.00;;;10.90;97.60;;;;;;5208704;28;20560;-82
2022/03/21 09:43:03;;;;;;;1.02;1.02;;;11.00;98.10;;;;;;5170754;28;20041;-80
2022/03/21 09:45:36;;;;;;;0.90;0.90;;;10.80;97.70;;;;;;5239087;28;20030;-78
2022/03/21 09:48:17;;;;;;;1.10;1.10;;;11.70;97.60;;;;;;5214241;28;20016;-78
2022/03/21 09:50:52;;;;;;;0.73;0.73;;;11.60;97.60;;;;;;5231979;28;20017;-78
2022/03/21 09:53:25;;;;;;;0.98;0.98;;;12.00;97.30;;;;;;5211905;28;20029;-78
2022/03/21 09:55:57;;;;;;;1.17;1.17;;;12.00;97.20;;;;;;5194054;28;20039;-78
2022/03/21 09:58:31;;;;;;;1.20;1.20;;;12.00;96.60;;;;;;5209766;28;20048;-74
2022/03/21 10:01:06;;;;;;;0.85;0.85;;;12.30;97.20;;;;;;5208590;28;20021;-78
2022/03/21 10:03:46;;;;;;;1.00;1.00;;;11.60;96.80;;;;;;5190137;28;20621;-78
2022/03/21 10:06:35;;;;;;;0.80;0.80;;;11.70;96.50;;;;;;5193665;28;20611;-77
2022/03/21 10:09:13;;;;;;;0.70;0.70;;;11.40;95.80;;;;;;5192657;28;20033;-77
2022/03/21 10:11:57;;;;;;;0.70;0.70;;;12.00;95.70;;;;;;5231475;28;20024;-78
2022/03/21 10:14:36;;;;;;;1.55;1.55;;;12.20;95.60;;;;;;5196301;28;20104;-80
2022/03/21 10:17:15;;;;;;;1.17;1.17;;;11.90;95.40;;;;;;5173627;28;20567;-80
2022/03/21 10:19:53;;;;;;;1.92;1.83;;;12.20;95.70;;;;;;5186734;28;20345;-78
2022/03/21 10:22:33;;;;;;;2.08;1.98;;;12.00;95.00;;;;;;5188931;28;20037;-78
2022/03/21 10:25:15;;;;;;;1.58;1.52;;;11.90;95.50;;;;;;5201517;28;20028;-78
2022/03/21 10:27:49;;;;;;;1.02;1.02;;;12.30;94.60;;;;;;5194217;28;20090;-80
2022/03/21 10:30:26;;;;;;;;;;;12.70;94.80;;;;;;5195922;28;20241;-78
2022/03/21 10:33:03;;;;;;;0.82;0.82;;;13.30;94.20;;;;;;5216034;28;19905;-77
2022/03/21 10:35:48;;;;;;;1.90;1.80;;;13.50;93.60;;;;;;5180195;28;20017;-78
2022/03/21 10:38:39;;;;;;;0.88;0.88;;;13.40;94.50;;;;;;5204846;28;20017;-76
2022/03/21 10:41:12;;;;;;;0.90;0.90;;;14.00;93.50;;;;;;5220320;28;20025;-77
2022/03/21 10:43:56;;;;;;;1.40;1.30;;;13.70;93.50;;;;;;5223393;28;20043;-78
2022/03/21 10:46:28;;;;;;;1.35;1.35;;;14.70;92.30;;;;;;5203397;28;20407;-78
2022/03/21 10:49:10;;;;;;;1.98;1.83;;;14.00;92.30;;;;;;5196937;28;20041;-77
2022/03/21 10:51:57;;;;;;;0.77;0.77;;;14.70;92.40;;;;;;5221301;28;20027;-81
2022/03/21 10:54:43;;;;;;;0.95;0.95;;;15.90;91.80;;;;;;5205780;28;20051;-80
2022/03/21 10:57:37;;;;;;;0.63;0.63;;;16.40;90.00;;;;;;5200862;28;20009;-79
2022/03/21 11:00:22;;;;;;;1.27;1.23;;;16.90;89.70;;;;;;5180837;28;20021;-77
2022/03/21 11:03:05;;;;;;;0.90;0.90;;;15.90;88.70;;;;;;5198721;28;20037;-79
2022/03/21 11:05:42;;;;;;;0.93;0.93;;;16.10;88.30;;;;;;5179755;28;20079;-78
2022/03/21 11:08:22;;;;;;;0.98;0.98;;;16.50;89.50;;;;;;5186447;28;20036;-78
2022/03/21 11:10:53;;;;;;;1.02;1.00;;;16.30;87.40;;;;;;5217319;28;20053;-78
2022/03/21 11:13:29;;;;;;;0.70;0.70;;;17.10;85.80;;;;;;5201591;28;20036;-78
2022/03/21 11:16:07;;;;;;;0.52;0.52;;;17.20;86.00;;;;;;5188241;28;20025;-79
2022/03/21 11:18:42;;;;;;;0.73;0.73;;;18.10;82.70;;;;;;5217402;28;20353;-78
2022/03/21 11:21:14;;;;;;;0.50;0.50;;;17.50;82.10;;;;;;5202066;28;20033;-80
2022/03/21 11:23:49;;;;;;;1.35;1.25;;;17.90;82.70;;;;;;5203851;28;20021;-77
2022/03/21 11:26:40;;;;;;;0.82;0.82;;;18.10;81.70;;;;;;5208254;28;20331;-78
2022/03/21 11:29:33;;;;;;;0.82;0.82;;;17.60;81.40;;;;;;5192876;28;20043;-79
2022/03/21 11:32:32;;;;;;;1.52;1.42;;;18.40;79.60;;;;;;5210838;28;20025;-79
2022/03/21 11:35:17;;;;;;;1.48;1.38;;;16.70;78.70;;;;;;5204387;28;20036;-77
2022/03/21 11:37:53;;;;;;;1.65;1.55;;;15.50;80.80;;;;;;5204886;28;20043;-77
2022/03/21 11:40:34;;;;;;;3.40;1.67;;;16.60;82.20;;;;;;5183663;28;20037;-78
2022/03/21 11:43:18;;;;;;;2.03;1.92;;;18.00;78.60;;;;;;5184741;28;20030;-77
2022/03/21 11:45:57;;;;;;;1.25;1.25;;;16.90;79.50;;;;;;5215672;28;20044;-77
2022/03/21 11:48:29;;;;;;;1.70;1.55;;;16.20;79.80;;;;;;5184228;28;20033;-77
2022/03/21 11:51:25;;;;;;;0.75;0.75;;;16.70;78.50;;;;;;5216758;28;20029;-78
2022/03/21 11:53:57;;;;;;;0.70;0.70;;;17.20;79.60;;;;;;5204414;28;20043;-78
2022/03/21 11:56:40;;;;;;;1.90;1.80;;;18.60;78.60;;;;;;5181119;28;20052;-80
2022/03/21 11:59:38;;;;;;;0.65;0.65;;;18.30;76.10;;;;;;5220089;28;20041;-76
2022/03/21 12:02:10;;;;;;;0.85;0.85;;;17.70;76.30;;;;;;5213375;28;20024;-75
2022/03/21 12:04:43;;;;;;;1.65;1.55;;;16.30;76.30;;;;;;5202469;28;20095;-75
2022/03/21 12:07:14;;;;;;;0.95;0.95;;;14.90;78.70;;;;;;5181763;28;20039;-74
2022/03/21 12:09:51;;;;;;;0.82;0.82;;;16.10;79.10;;;;;;5213087;28;20028;-74
2022/03/21 12:12:52;;;;;;;0.60;0.60;;;16.40;77.10;;;;;;5197567;28;20592;-75
2022/03/21 12:15:31;;;;;;;0.57;0.57;;;17.60;74.40;;;;;;5208283;28;20041;-76
2022/03/21 12:18:08;;;;;;;0.77;0.73;;;16.60;75.80;;;;;;5178707;28;20080;-75
2022/03/21 12:20:48;;;;;;;0.73;0.73;;;17.30;75.30;;;;;;5201361;28;20433;-75
2022/03/21 12:23:21;;;;;;;0.80;0.80;;;17.80;74.40;;;;;;5217655;28;20016;-75
2022/03/21 12:25:58;;;;;;;0.50;0.50;;;18.10;73.20;;;;;;5196201;28;20342;-75
2022/03/21 12:31:34;;;;;;;1.13;1.00;;;18.40;73.00;;;;;;5220464;28;20025;-75
2022/03/21 12:34:37;;;;;;;0.60;0.60;;;17.90;73.40;;;;;;5202165;28;20033;-74
2022/03/21 12:37:41;;;;;;;1.23;1.23;;;18.70;73.20;;;;;;5213807;28;20037;-76
2022/03/21 12:40:18;;;;;;;1.02;1.00;;;17.60;72.30;;;;;;5176200;28;20049;-75
2022/03/21 12:42:50;;;;;;;0.82;0.82;;;18.40;73.50;;;;;;5211998;28;20029;-75
2022/03/21 12:45:31;;;;;;;0.68;0.68;;;17.50;73.50;;;;;;5215543;28;20031;-75
2022/03/21 12:48:08;;;;;;;0.50;0.50;;;15.60;74.90;;;;;;5186446;28;20026;-75
2022/03/21 12:50:40;;;;;;;1.10;1.10;;;16.90;74.00;;;;;;5202974;28;20023;-75
2022/03/21 12:53:21;;;;;;;0.70;0.70;;;16.30;72.00;;;;;;5202854;28;20349;-75
2022/03/21 12:56:08;;;;;;;0.90;0.90;;;15.30;74.40;;;;;;5221558;28;20017;-75
2022/03/21 12:58:46;;;;;;;1.10;1.10;;;16.60;74.50;;;;;;5189988;28;20367;-74
2022/03/21 13:01:26;;;;;;;1.27;1.27;;;17.50;73.00;;;;;;5222196;28;20028;-75
2022/03/21 13:12:45;;;;;;;0.50;0.50;;;16.30;72.40;;;;;;5218556;28;20387;-75
2022/03/21 13:15:27;;;;;;;0.80;0.80;;;16.40;73.50;;;;;;5201782;28;20056;-77
2022/03/21 13:18:03;;;;;;;0.90;0.90;;;17.80;71.50;;;;;;5190943;28;20048;-75
2022/03/21 13:20:43;;;;;;;0.52;0.52;;;16.60;73.70;;;;;;5167389;28;20029;-75
2022/03/21 13:23:22;;;;;;;0.50;0.50;;;17.70;72.40;;;;;;5202095;28;20035;-75
2022/03/21 13:26:11;;;;;;;0.60;0.60;;;16.90;72.50;;;;;;5203469;28;20464;-74
2022/03/21 13:28:49;;;;;;;1.20;1.13;;;16.90;73.10;;;;;;5188889;28;20227;-76
2022/03/21 13:31:26;;;;;;;0.75;0.75;;;17.20;72.30;;;;;;5166516;28;20052;-76
2022/03/21 13:34:05;;;;;;;1.35;1.25;;;18.30;71.30;;;;;;5183124;28;20255;-75
2022/03/21 13:36:46;;;;;;;0.65;0.65;;;18.50;69.60;;;;;;5208033;28;20039;-74
2022/03/21 13:39:23;;;;;;;1.67;1.60;;;17.30;70.60;;;;;;5193432;28;20044;-75
2022/03/21 13:42:06;;;;;;;1.30;1.25;;;17.80;70.40;;;;;;5213500;28;20024;-75
2022/03/21 13:44:48;;;;;;;0.65;0.65;;;17.80;71.00;;;;;;5206301;28;20346;-75
2022/03/21 13:47:23;;;;;;;0.63;0.63;;;18.80;69.20;;;;;;5198842;28;20029;-77
2022/03/21 13:50:08;;;;;;;8.88;1.42;;;18.10;70.20;;;;;;5200434;28;20021;-75
2022/03/21 13:52:45;;;;;;;;;;;17.40;71.60;;;;;;5180686;28;20028;-74
2022/03/21 13:55:38;;;;;;;0.75;0.75;;;17.90;71.80;;;;;;5200377;28;19913;-75
2022/03/21 13:58:27;;;;;;;0.50;0.50;;;18.10;70.50;;;;;;5200766;28;20029;-76
2022/03/21 14:00:59;;;;;;;0.70;0.70;;;17.60;69.20;;;;;;5193516;28;20241;-75
2022/03/21 14:03:39;;;;;;;0.50;0.50;;;18.50;70.20;;;;;;5203387;28;20035;-75
2022/03/21 14:06:11;;;;;;;0.80;0.80;;;17.40;68.90;;;;;;5167577;28;20049;-75
2022/03/21 14:08:43;;;;;;;0.40;0.40;;;17.20;69.50;;;;;;5215413;28;20481;-75
2022/03/21 14:11:22;;;;;;;0.50;0.50;;;17.70;69.90;;;;;;5195721;28;20293;-74
2022/03/21 14:13:53;;;;;;;0.50;0.50;;;17.40;69.90;;;;;;5197061;28;20036;-75